St Solene — FVDG — position and weather

sailwx.info

Track history (hours):
 
Tides and Currents Weather Stations Pressure Air Temp Water Temp Dewpoint Dewpoint Depression Visibility Wind Speed Wind Dir Waves Ship Positions

St Solene

Last reported at 2016-Jun-30 16:04 UTC. Time now 2016-Jul-01 00:58 UTC.
Position N 43°24' E 004°56'.

Length 104 m; draft 6.6 m.

Type: Tanker. MMSI: 226302000.

Date/timePositionNaut miles runAvg speedWind from/ knotsBaromVisibWave heightAir tempDewpointWater temp
2016-Jun-30 16:04N 43°24' E 004°56'2 4.9
2016-Jun-30 15:33N 43°24' E 004°60'0 0.0
2016-Jun-30 14:33N 43°24' E 004°60'0 0.0
2016-Jun-30 13:30N 43°24' E 004°60'0 0.0
2016-Jun-30 12:30N 43°24' E 004°60'0 0.0
2016-Jun-30 11:30N 43°24' E 004°60'0 0.0
2016-Jun-30 10:30N 43°24' E 004°60'0 0.0
2016-Jun-30 09:30N 43°24' E 004°60'0 0.0
2016-Jun-30 08:33N 43°24' E 004°60'0 0.0
2016-Jun-30 07:30N 43°24' E 004°60'0 0.0
2016-Jun-30 06:30N 43°24' E 004°60'0 0.0
2016-Jun-30 05:33N 43°24' E 004°60'0 0.0
2016-Jun-30 04:33N 43°24' E 004°60'0 0.0
2016-Jun-30 03:30N 43°24' E 004°60'0 0.0
2016-Jun-30 02:33N 43°24' E 004°60'0 0.0
2016-Jun-30 01:30N 43°24' E 004°60'0 0.0
2016-Jun-30 00:30N 43°24' E 004°60'0 0.0
2016-Jun-29 23:33N 43°24' E 004°60'0 0.0
2016-Jun-29 22:30N 43°24' E 004°60'0 0.0
2016-Jun-29 21:33N 43°24' E 004°60'0 0.0
2016-Jun-29 20:27N 43°24' E 004°60'0 0.0
2016-Jun-29 19:33N 43°24' E 004°60'2 0.3
2016-Jun-29 13:33N 43°24' E 004°57'0 0.0
2016-Jun-29 12:06N 43°24' E 004°57'0 0.0
2016-Jun-29 10:11N 43°24' E 004°57'0 0.0
2016-Jun-29 09:33N 43°24' E 004°57'0 0.0
2016-Jun-29 08:31N 43°24' E 004°57'0 0.1
2016-Jun-29 07:33N 43°24' E 004°57'2 0.0
2016-Jun-27 15:08N 43°22' E 004°58'1 0.0
2016-Jun-25 18:33N 43°23' E 004°58'8810.4
2016-Jun-25 10:06N 42°50' E 006°49'813.4
2016-Jun-25 09:32N 42°52' E 006°59'1313.2
2016-Jun-25 08:33N 42°54' E 007°16'1313.1
2016-Jun-25 07:33N 42°57' E 007°34'1312.9
2016-Jun-25 06:31N 43°00' E 007°52'1313.0
2016-Jun-25 05:33N 43°03' E 008°08'1312.9
2016-Jun-25 04:33N 43°06' E 008°25'1312.6
2016-Jun-25 03:33N 43°08' E 008°42'1212.2
2016-Jun-25 02:33N 43°11' E 008°59'1212.2
2016-Jun-25 01:33N 43°14' E 009°15'1211.6
2016-Jun-25 00:33N 43°12' E 009°31'1211.9
2016-Jun-24 23:33N 43°01' E 009°37'7 0.4
2016-Jun-24 07:20N 43°08' E 009°36'3010.9
2016-Jun-24 04:33N 43°06' E 008°54'1313.2
2016-Jun-24 03:34N 42°56' E 008°42'1413.6
2016-Jun-24 02:33N 42°46' E 008°30'65 3.4
2016-Jun-23 07:22N 41°43' E 008°07'2312.6
2016-Jun-23 05:33N 41°41' E 007°37'6812.8
2016-Jun-23 00:15N 41°34' E 006°06'8512.7
2016-Jun-22 17:33N 41°26' E 004°13'1212.6
2016-Jun-22 16:33N 41°25' E 003°56'1212.3
2016-Jun-22 15:33N 41°23' E 003°40'1212.3
2016-Jun-22 14:33N 41°22' E 003°24'1212.6
2016-Jun-22 13:34N 41°21' E 003°07'1212.3
2016-Jun-22 12:34N 41°20' E 002°51'1212.4
2016-Jun-22 11:34N 41°19' E 002°34'1312.9
2016-Jun-22 10:34N 41°16' E 002°18'7 7.3
2016-Jun-22 09:33N 41°20' E 002°09'0 0.0
2016-Jun-21 20:25N 41°20' E 002°09'0 0.0
2016-Jun-21 02:26N 41°20' E 002°09'1 1.0
2016-Jun-21 01:33N 41°20' E 002°10'1 0.7
2016-Jun-21 00:05N 41°19' E 002°11'0 0.0
2016-Jun-20 22:29N 41°19' E 002°11'0 0.0
2016-Jun-20 21:26N 41°19' E 002°11'0 0.0
2016-Jun-20 20:32N 41°19' E 002°11'0 0.0
2016-Jun-20 19:32N 41°19' E 002°11'0 0.0
2016-Jun-20 18:32N 41°19' E 002°11'0 0.0
2016-Jun-20 17:32N 41°19' E 002°11'0 0.0
2016-Jun-20 16:32N 41°19' E 002°11'  
Track history (hours):
 
Tides and Currents Weather Stations Pressure Air Temp Water Temp Dewpoint Dewpoint Depression Visibility Wind Speed Wind Dir Waves Ship Positions

St Solene

Last reported at 2016-Jun-30 16:04 UTC. Time now 2016-Jul-01 00:58 UTC.
Position N 43°24' E 004°56'.

Length 104 m; draft 6.6 m.

Type: Tanker. MMSI: 226302000.

Date/timePositionNaut miles runAvg speedWind from/ knotsBaromVisibWave heightAir tempDewpointWater temp
2016-Jun-30 16:04N 43°24' E 004°56'2 4.9
2016-Jun-30 15:33N 43°24' E 004°60'0 0.0
2016-Jun-30 14:33N 43°24' E 004°60'0 0.0
2016-Jun-30 13:30N 43°24' E 004°60'0 0.0
2016-Jun-30 12:30N 43°24' E 004°60'0 0.0
2016-Jun-30 11:30N 43°24' E 004°60'0 0.0
2016-Jun-30 10:30N 43°24' E 004°60'0 0.0
2016-Jun-30 09:30N 43°24' E 004°60'0 0.0
2016-Jun-30 08:33N 43°24' E 004°60'0 0.0
2016-Jun-30 07:30N 43°24' E 004°60'0 0.0
2016-Jun-30 06:30N 43°24' E 004°60'0 0.0
2016-Jun-30 05:33N 43°24' E 004°60'0 0.0
2016-Jun-30 04:33N 43°24' E 004°60'0 0.0
2016-Jun-30 03:30N 43°24' E 004°60'0 0.0
2016-Jun-30 02:33N 43°24' E 004°60'0 0.0
2016-Jun-30 01:30N 43°24' E 004°60'0 0.0
2016-Jun-30 00:30N 43°24' E 004°60'0 0.0
2016-Jun-29 23:33N 43°24' E 004°60'0 0.0
2016-Jun-29 22:30N 43°24' E 004°60'0 0.0
2016-Jun-29 21:33N 43°24' E 004°60'0 0.0
2016-Jun-29 20:27N 43°24' E 004°60'0 0.0
2016-Jun-29 19:33N 43°24' E 004°60'2 0.3
2016-Jun-29 13:33N 43°24' E 004°57'0 0.0
2016-Jun-29 12:06N 43°24' E 004°57'0 0.0
2016-Jun-29 10:11N 43°24' E 004°57'0 0.0
2016-Jun-29 09:33N 43°24' E 004°57'0 0.0
2016-Jun-29 08:31N 43°24' E 004°57'0 0.1
2016-Jun-29 07:33N 43°24' E 004°57'2 0.0
2016-Jun-27 15:08N 43°22' E 004°58'1 0.0
2016-Jun-25 18:33N 43°23' E 004°58'8810.4
2016-Jun-25 10:06N 42°50' E 006°49'813.4
2016-Jun-25 09:32N 42°52' E 006°59'1313.2
2016-Jun-25 08:33N 42°54' E 007°16'1313.1
2016-Jun-25 07:33N 42°57' E 007°34'1312.9
2016-Jun-25 06:31N 43°00' E 007°52'1313.0
2016-Jun-25 05:33N 43°03' E 008°08'1312.9
2016-Jun-25 04:33N 43°06' E 008°25'1312.6
2016-Jun-25 03:33N 43°08' E 008°42'1212.2
2016-Jun-25 02:33N 43°11' E 008°59'1212.2
2016-Jun-25 01:33N 43°14' E 009°15'1211.6
2016-Jun-25 00:33N 43°12' E 009°31'1211.9
2016-Jun-24 23:33N 43°01' E 009°37'7 0.4
2016-Jun-24 07:20N 43°08' E 009°36'3010.9
2016-Jun-24 04:33N 43°06' E 008°54'1313.2
2016-Jun-24 03:34N 42°56' E 008°42'1413.6
2016-Jun-24 02:33N 42°46' E 008°30'65 3.4
2016-Jun-23 07:22N 41°43' E 008°07'2312.6
2016-Jun-23 05:33N 41°41' E 007°37'6812.8
2016-Jun-23 00:15N 41°34' E 006°06'8512.7
2016-Jun-22 17:33N 41°26' E 004°13'1212.6
2016-Jun-22 16:33N 41°25' E 003°56'1212.3
2016-Jun-22 15:33N 41°23' E 003°40'1212.3
2016-Jun-22 14:33N 41°22' E 003°24'1212.6
2016-Jun-22 13:34N 41°21' E 003°07'1212.3
2016-Jun-22 12:34N 41°20' E 002°51'1212.4
2016-Jun-22 11:34N 41°19' E 002°34'1312.9
2016-Jun-22 10:34N 41°16' E 002°18'7 7.3
2016-Jun-22 09:33N 41°20' E 002°09'0 0.0
2016-Jun-21 20:25N 41°20' E 002°09'0 0.0
2016-Jun-21 02:26N 41°20' E 002°09'1 1.0
2016-Jun-21 01:33N 41°20' E 002°10'1 0.7
2016-Jun-21 00:05N 41°19' E 002°11'0 0.0
2016-Jun-20 22:29N 41°19' E 002°11'0 0.0
2016-Jun-20 21:26N 41°19' E 002°11'0 0.0
2016-Jun-20 20:32N 41°19' E 002°11'0 0.0
2016-Jun-20 19:32N 41°19' E 002°11'0 0.0
2016-Jun-20 18:32N 41°19' E 002°11'0 0.0
2016-Jun-20 17:32N 41°19' E 002°11'0 0.0
2016-Jun-20 16:32N 41°19' E 002°11'  

Dump ship's entire track history